KMCK

Mc Cook Ben Nelson Regional Airport

Mc Cook, Nebraska, USA
METAR KMCK 230253Z AUTO 15009KT 10SM CLR 21/15 A2990 RMK AO2 SLP107 T02110150 52015
Observed Flight Rules
May-23 @ 02:53 UTC (30 minutes ago) Visual Flight Rules
Wind Visibility Clouds
150° at 9 knots 10 miles
  • Clear skies
Temperatures Readings
Current 21°C / 70°F
Dewpoint 15°C / 59°F
Humidity 69%
Altimeter 29.9" Hg
Pressure 1010.7 hPa
Elevation 782
METAR KMCK 230253Z AUTO 15009KT 10SM CLR 21/15 A2990 RMK AO2 SLP107 T02110150 52015
Observed Flight Rules
May-23 @ 02:53 UTC
(30 minutes ago)
VFR
Wind Visibility
150° at 9 knots 10 miles
Clouds
  • Clear skies
Temperature Dewpoint
21°C / 70°F 15°C / 59°F
Humidity Altimeter Pressure
69% 29.9" Hg 1010.7 hPa